Time;durP1;ratioP1;P1;durP2;ratioP2;P2;SDS_P1;SDS_P2;PMS_P1;PMS_P2;Temp;Humidity;BMP_temperature;BMP_pressure;BME280_temperature;BME280_humidity;BME280_pressure;Samples;Min_cycle;Max_cycle;Signal;HPM_P1;HPM_P2
2023/03/07 00:01:53;;;;;;;18.75;8.98;;;5.80;90.60;;;;;;4999500;28;20030;-73
2023/03/07 00:04:19;;;;;;;15.55;7.82;;;5.90;90.60;;;;;;5001863;28;20035;-73
2023/03/07 00:06:45;;;;;;;14.43;9.05;;;5.90;90.60;;;;;;4989846;28;20048;-72
2023/03/07 00:09:11;;;;;;;17.65;8.07;;;5.90;90.60;;;;;;5002795;28;20113;-73
2023/03/07 00:11:36;;;;;;;24.25;9.52;;;5.90;90.60;;;;;;4997239;28;20034;-72
2023/03/07 00:14:08;;;;;;;14.88;7.78;;;6.00;90.70;;;;;;4999521;28;20022;-72
2023/03/07 00:16:34;;;;;;;15.65;7.03;;;6.00;90.60;;;;;;4997383;28;20064;-72
2023/03/07 00:18:59;;;;;;;14.20;7.45;;;6.00;90.50;;;;;;4991864;28;20513;-73
2023/03/07 00:21:30;;;;;;;12.70;7.55;;;6.00;90.50;;;;;;4990610;28;20034;-72
2023/03/07 00:23:56;;;;;;;14.40;7.55;;;5.90;90.50;;;;;;4997120;28;20034;-73
2023/03/07 00:26:23;;;;;;;11.65;7.50;;;5.90;90.50;;;;;;4995565;28;20038;-72
2023/03/07 00:28:51;;;;;;;17.75;8.57;;;6.00;90.60;;;;;;4993639;28;20429;-72
2023/03/07 00:31:18;;;;;;;15.02;9.23;;;6.00;90.60;;;;;;4991938;28;20089;-72
2023/03/07 00:33:45;;;;;;;18.77;9.63;;;6.00;90.70;;;;;;4996553;28;20050;-73
2023/03/07 00:36:14;;;;;;;20.80;9.70;;;6.10;90.70;;;;;;4997585;28;20030;-73
2023/03/07 00:38:41;;;;;;;19.55;9.73;;;6.10;90.60;;;;;;4998708;28;20022;-73
2023/03/07 00:41:07;;;;;;;18.75;9.40;;;6.10;90.70;;;;;;4996911;28;20450;-73
2023/03/07 00:43:34;;;;;;;16.77;9.07;;;6.10;90.60;;;;;;4999803;28;20080;-72
2023/03/07 00:46:00;;;;;;;19.08;8.20;;;6.00;90.70;;;;;;4999779;28;20153;-73
2023/03/07 00:48:27;;;;;;;15.77;8.18;;;6.10;90.70;;;;;;4995638;28;20027;-72
2023/03/07 00:50:53;;;;;;;17.20;8.30;;;6.00;90.70;;;;;;4997467;28;20035;-72
2023/03/07 00:53:19;;;;;;;13.48;7.82;;;6.10;90.70;;;;;;5003629;28;20024;-73
2023/03/07 00:55:58;;;;;;;15.98;7.82;;;6.10;90.60;;;;;;4998910;28;20172;-73
2023/03/07 00:58:24;;;;;;;14.35;7.30;;;6.10;90.60;;;;;;5003166;28;20053;-73
2023/03/07 01:00:50;;;;;;;14.50;7.38;;;6.10;90.50;;;;;;4996728;28;20057;-73
2023/03/07 01:03:17;;;;;;;11.23;6.30;;;6.10;90.40;;;;;;5006280;28;20061;-73
2023/03/07 01:05:42;;;;;;;11.52;5.72;;;6.10;90.40;;;;;;4988952;28;20120;-73
2023/03/07 01:08:08;;;;;;;10.52;5.18;;;6.10;90.50;;;;;;4995278;28;20450;-73
2023/03/07 01:10:34;;;;;;;10.70;6.43;;;6.10;90.40;;;;;;4999285;28;20026;-73
2023/03/07 01:13:00;;;;;;;12.80;6.32;;;6.10;90.40;;;;;;4999436;28;20026;-73
2023/03/07 01:15:26;;;;;;;13.38;6.38;;;6.10;90.40;;;;;;4998242;28;20034;-73
2023/03/07 01:17:52;;;;;;;12.63;5.95;;;6.10;90.40;;;;;;5004128;28;20076;-73
2023/03/07 01:20:18;;;;;;;12.15;6.15;;;6.10;90.50;;;;;;5001729;28;20049;-73
2023/03/07 01:22:44;;;;;;;16.40;7.90;;;6.10;90.50;;;;;;4994611;28;20049;-73
2023/03/07 01:25:12;;;;;;;14.05;8.15;;;6.10;90.70;;;;;;4993768;28;20541;-74
2023/03/07 01:27:38;;;;;;;15.13;8.70;;;6.10;90.70;;;;;;4990823;28;20042;-74
2023/03/07 01:30:05;;;;;;;16.02;9.73;;;6.10;90.90;;;;;;4997605;28;20030;-73
2023/03/07 01:32:31;;;;;;;17.13;10.77;;;6.10;91.10;;;;;;4996116;28;20045;-74
2023/03/07 01:34:56;;;;;;;18.35;11.15;;;6.00;91.20;;;;;;5000290;28;20064;-72
2023/03/07 01:37:22;;;;;;;16.67;11.20;;;6.10;91.20;;;;;;5002769;28;20502;-72
2023/03/07 01:39:52;;;;;;;19.25;12.18;;;6.10;91.30;;;;;;5005966;28;20023;-72
2023/03/07 01:42:19;;;;;;;20.98;12.05;;;6.10;91.30;;;;;;5003495;28;20048;-73
2023/03/07 01:45:10;;;;;;;21.83;12.10;;;6.10;91.30;;;;;;4999907;28;20092;-72
2023/03/07 01:47:36;;;;;;;24.80;13.13;;;6.00;91.40;;;;;;4997762;28;20390;-72
2023/03/07 01:50:10;;;;;;;22.05;12.77;;;6.10;91.50;;;;;;5000351;28;20478;-73
2023/03/07 01:52:44;;;;;;;20.45;12.10;;;6.10;91.50;;;;;;4993480;28;20045;-73
2023/03/07 01:55:16;;;;;;;22.48;12.50;;;6.10;91.50;;;;;;5005384;28;20066;-72
2023/03/07 01:57:45;;;;;;;19.15;12.07;;;6.00;91.50;;;;;;4997106;28;20042;-72
2023/03/07 02:00:18;;;;;;;20.73;12.18;;;6.10;91.60;;;;;;5004301;28;20065;-72
2023/03/07 02:02:49;;;;;;;19.77;12.35;;;6.10;91.50;;;;;;5002027;28;20022;-73
2023/03/07 02:05:46;;;;;;;19.88;11.80;;;6.10;91.50;;;;;;5005740;28;20080;-72
2023/03/07 02:08:15;;;;;;;22.20;12.43;;;6.00;91.50;;;;;;5000227;28;20042;-72
2023/03/07 02:10:41;;;;;;;18.83;12.50;;;6.10;91.40;;;;;;5001400;28;20112;-72
2023/03/07 02:13:08;;;;;;;21.80;12.57;;;6.10;91.50;;;;;;4998664;28;20113;-73
2023/03/07 02:15:34;;;;;;;19.00;11.90;;;6.10;91.40;;;;;;4990462;28;20060;-73
2023/03/07 02:18:00;;;;;;;20.13;11.40;;;6.00;91.40;;;;;;5001710;28;20041;-72
2023/03/07 02:20:35;;;;;;;20.25;12.45;;;6.10;91.40;;;;;;4996463;28;20023;-72
2023/03/07 02:23:03;;;;;;;18.15;12.38;;;6.10;91.40;;;;;;4996826;28;20046;-72
2023/03/07 02:25:40;;;;;;;18.85;12.82;;;6.10;91.30;;;;;;4994884;28;20258;-74
2023/03/07 02:28:08;;;;;;;21.38;13.23;;;6.10;91.30;;;;;;4992076;28;20014;-72
2023/03/07 02:30:36;;;;;;;24.38;14.00;;;6.10;91.40;;;;;;4996787;28;20026;-72
2023/03/07 02:33:02;;;;;;;21.25;13.50;;;6.10;91.40;;;;;;5003163;28;20068;-72
2023/03/07 02:35:28;;;;;;;22.80;13.45;;;6.00;91.50;;;;;;5001166;28;20482;-72
2023/03/07 02:37:58;;;;;;;25.15;14.40;;;6.00;91.50;;;;;;5000845;28;20042;-72
2023/03/07 02:40:27;;;;;;;22.88;13.63;;;6.00;91.50;;;;;;5002252;28;20052;-73
2023/03/07 02:42:57;;;;;;;27.88;16.42;;;6.00;91.40;;;;;;4990946;28;20382;-73
2023/03/07 02:45:23;;;;;;;25.92;14.95;;;6.00;91.50;;;;;;4995286;28;20029;-73
2023/03/07 02:47:48;;;;;;;23.00;14.77;;;5.90;91.60;;;;;;4998958;28;20518;-72
2023/03/07 02:50:15;;;;;;;24.20;15.57;;;5.90;91.70;;;;;;4999377;28;20392;-72
2023/03/07 02:52:41;;;;;;;24.40;15.60;;;5.90;91.70;;;;;;4994265;28;20034;-73
2023/03/07 02:55:07;;;;;;;24.33;14.63;;;5.90;91.70;;;;;;4998198;28;20034;-73
2023/03/07 02:57:34;;;;;;;21.85;15.23;;;5.90;91.70;;;;;;4998135;28;20107;-73
2023/03/07 03:00:01;;;;;;;23.85;13.98;;;5.90;91.50;;;;;;4993904;28;20096;-73
2023/03/07 03:02:26;;;;;;;25.10;14.50;;;5.90;91.50;;;;;;4989611;28;20042;-73
2023/03/07 03:04:52;;;;;;;24.50;14.20;;;5.90;91.60;;;;;;4997631;28;20118;-73
2023/03/07 03:07:18;;;;;;;24.63;14.25;;;5.90;91.60;;;;;;5002188;28;20046;-74
2023/03/07 03:09:43;;;;;;;20.45;13.88;;;5.90;91.50;;;;;;5002174;28;20041;-73
2023/03/07 03:12:09;;;;;;;21.52;13.35;;;5.90;91.50;;;;;;5002497;28;20041;-73
2023/03/07 03:14:35;;;;;;;20.95;13.65;;;5.90;91.60;;;;;;5001685;28;20462;-73
2023/03/07 03:17:00;;;;;;;21.83;13.30;;;5.90;91.40;;;;;;4996246;28;20038;-73
2023/03/07 03:19:28;;;;;;;20.45;12.90;;;5.90;91.40;;;;;;4998382;28;20039;-73
2023/03/07 03:21:54;;;;;;;21.05;12.80;;;5.90;91.50;;;;;;4990503;28;20038;-73
2023/03/07 03:24:20;;;;;;;18.90;11.73;;;5.90;91.40;;;;;;5002415;28;20034;-72
2023/03/07 03:26:45;;;;;;;19.00;12.57;;;6.00;91.40;;;;;;5000059;28;20145;-73
2023/03/07 03:29:11;;;;;;;21.73;13.13;;;5.90;91.30;;;;;;5002285;28;20472;-73
2023/03/07 03:31:37;;;;;;;22.30;13.20;;;5.90;91.30;;;;;;4993941;28;20065;-73
2023/03/07 03:34:04;;;;;;;19.83;12.88;;;5.90;91.40;;;;;;4994405;28;20033;-73
2023/03/07 03:36:30;;;;;;;20.75;13.38;;;6.00;91.30;;;;;;4997318;28;20069;-73
2023/03/07 03:38:57;;;;;;;20.25;13.00;;;6.00;91.30;;;;;;4997794;28;20057;-73
2023/03/07 03:41:23;;;;;;;18.55;12.82;;;5.90;91.30;;;;;;4994175;28;20054;-73
2023/03/07 03:43:49;;;;;;;21.17;12.40;;;6.00;91.30;;;;;;4993642;28;20029;-73
2023/03/07 03:46:16;;;;;;;20.42;13.35;;;5.90;91.30;;;;;;4999287;28;20180;-73
2023/03/07 03:48:42;;;;;;;19.45;11.75;;;6.00;91.20;;;;;;5003598;28;20061;-73
2023/03/07 03:51:11;;;;;;;21.17;12.15;;;5.90;91.10;;;;;;4999908;28;20047;-72
2023/03/07 03:53:38;;;;;;;20.02;10.88;;;5.90;91.20;;;;;;4998641;28;20419;-73
2023/03/07 03:56:05;;;;;;;17.02;11.32;;;5.90;91.20;;;;;;4997754;28;20050;-73
2023/03/07 03:58:32;;;;;;;21.73;11.90;;;5.90;91.20;;;;;;5001720;28;20047;-74
2023/03/07 04:01:04;;;;;;;16.35;11.52;;;5.90;91.20;;;;;;4993853;28;20030;-73
2023/03/07 04:03:35;;;;;;;19.50;11.85;;;5.90;91.10;;;;;;5000149;28;20033;-73
2023/03/07 04:06:06;;;;;;;17.90;11.20;;;5.90;91.10;;;;;;4992090;28;20039;-72
2023/03/07 04:08:33;;;;;;;20.33;11.43;;;5.90;91.00;;;;;;4990090;28;20049;-73
2023/03/07 04:10:59;;;;;;;18.52;11.13;;;5.90;90.90;;;;;;4995709;28;20041;-73
2023/03/07 04:13:24;;;;;;;19.92;12.45;;;5.90;90.80;;;;;;4996860;28;20038;-72
2023/03/07 04:15:51;;;;;;;19.80;11.23;;;5.90;90.90;;;;;;4994406;28;20041;-72
2023/03/07 04:18:18;;;;;;;17.58;10.90;;;5.90;90.80;;;;;;4997935;28;20084;-73
2023/03/07 04:20:44;;;;;;;21.00;11.82;;;5.90;90.80;;;;;;4991218;28;20108;-73
2023/03/07 04:23:10;;;;;;;19.70;12.20;;;5.90;90.90;;;;;;4996179;28;20045;-73
2023/03/07 04:25:37;;;;;;;19.70;12.45;;;5.90;90.70;;;;;;4991914;28;20037;-72
2023/03/07 04:28:03;;;;;;;18.95;11.57;;;5.90;90.80;;;;;;4997841;28;20022;-73
2023/03/07 04:30:29;;;;;;;18.70;11.70;;;5.90;90.70;;;;;;5000730;28;20030;-73
2023/03/07 04:32:54;;;;;;;16.67;11.38;;;5.90;90.70;;;;;;4990687;28;20433;-73
2023/03/07 04:35:20;;;;;;;18.00;11.15;;;5.90;90.70;;;;;;4988950;28;20065;-73
2023/03/07 04:37:46;;;;;;;17.58;11.55;;;5.80;90.60;;;;;;4995677;28;20029;-72
2023/03/07 04:40:12;;;;;;;22.58;11.32;;;5.80;90.80;;;;;;4997110;28;20102;-73
2023/03/07 04:42:38;;;;;;;17.83;10.05;;;5.90;90.70;;;;;;4991280;28;20044;-73
2023/03/07 04:45:04;;;;;;;15.02;9.95;;;5.90;90.70;;;;;;4991063;28;20034;-72
2023/03/07 04:47:30;;;;;;;16.05;10.18;;;5.90;90.60;;;;;;4996779;28;20037;-73
2023/03/07 04:49:55;;;;;;;16.88;10.45;;;5.90;90.60;;;;;;4994043;28;20414;-72
2023/03/07 04:52:21;;;;;;;17.45;9.70;;;5.80;90.70;;;;;;4998331;28;20042;-73
2023/03/07 04:54:47;;;;;;;18.48;9.68;;;5.90;90.60;;;;;;4997153;28;20024;-73
2023/03/07 04:57:12;;;;;;;14.10;9.38;;;5.80;90.60;;;;;;4998081;28;20117;-73
2023/03/07 04:59:38;;;;;;;16.88;10.40;;;5.90;90.60;;;;;;4997723;28;20398;-73
2023/03/07 05:02:11;;;;;;;15.73;10.25;;;5.90;90.50;;;;;;5001667;28;20034;-73
2023/03/07 05:04:37;;;;;;;15.32;9.85;;;5.80;90.60;;;;;;4995372;28;20030;-73
2023/03/07 05:07:04;;;;;;;14.95;9.95;;;5.80;90.60;;;;;;4995301;28;20060;-73
2023/03/07 05:09:30;;;;;;;19.15;10.57;;;5.90;90.80;;;;;;4987614;28;20026;-73
2023/03/07 05:11:55;;;;;;;17.02;9.60;;;5.90;90.70;;;;;;4987155;28;20112;-74
2023/03/07 05:14:21;;;;;;;17.92;10.20;;;5.80;90.70;;;;;;5000863;28;20463;-73
2023/03/07 05:16:47;;;;;;;17.08;10.32;;;5.80;90.70;;;;;;4995312;28;20630;-73
2023/03/07 05:19:12;;;;;;;16.90;10.38;;;5.80;90.60;;;;;;4994071;28;20026;-73
2023/03/07 05:21:40;;;;;;;14.90;10.80;;;5.90;90.70;;;;;;4987575;28;20043;-73
2023/03/07 05:24:06;;;;;;;15.48;10.05;;;5.80;90.70;;;;;;4990337;28;20027;-73
2023/03/07 05:26:32;;;;;;;16.33;10.40;;;5.80;90.70;;;;;;4997178;28;20049;-73
2023/03/07 05:28:58;;;;;;;18.15;10.65;;;5.90;90.80;;;;;;4997338;28;20463;-73
2023/03/07 05:31:24;;;;;;;19.05;12.00;;;5.80;90.80;;;;;;4991639;28;20058;-73
2023/03/07 05:33:50;;;;;;;17.90;11.43;;;5.80;90.70;;;;;;4993613;28;20085;-73
2023/03/07 05:36:16;;;;;;;17.52;11.43;;;5.80;90.70;;;;;;4994739;28;20158;-73
2023/03/07 05:38:42;;;;;;;17.75;11.80;;;5.70;90.80;;;;;;4995054;28;20474;-73
2023/03/07 05:41:08;;;;;;;19.10;11.90;;;5.70;90.80;;;;;;5000500;28;20044;-73
2023/03/07 05:43:33;;;;;;;16.73;11.15;;;5.70;90.80;;;;;;4997605;28;20026;-73
2023/03/07 05:45:59;;;;;;;21.05;11.55;;;5.70;90.70;;;;;;4998570;28;20065;-72
2023/03/07 05:48:25;;;;;;;18.90;11.82;;;5.70;90.80;;;;;;5002654;28;20019;-72
2023/03/07 05:50:50;;;;;;;19.23;11.73;;;5.70;90.80;;;;;;5002007;28;20025;-73
2023/03/07 05:53:16;;;;;;;18.67;11.93;;;5.70;90.90;;;;;;5003156;28;20088;-72
2023/03/07 05:55:42;;;;;;;19.95;11.27;;;5.70;90.90;;;;;;4998784;28;20053;-73
2023/03/07 05:58:08;;;;;;;18.98;11.77;;;5.70;91.00;;;;;;5003655;28;20037;-73
2023/03/07 06:00:33;;;;;;;18.58;11.18;;;5.70;91.00;;;;;;4995346;28;20030;-72
2023/03/07 06:03:03;;;;;;;22.77;10.93;;;5.70;90.90;;;;;;5002939;28;20474;-72
2023/03/07 06:05:28;;;;;;;15.18;9.82;;;5.80;90.90;;;;;;4995184;28;20030;-73
2023/03/07 06:07:54;;;;;;;16.05;10.90;;;5.80;90.90;;;;;;4999677;28;20037;-73
2023/03/07 06:10:20;;;;;;;17.90;10.00;;;5.80;90.80;;;;;;4999093;28;20034;-73
2023/03/07 06:12:50;;;;;;;17.88;10.80;;;5.80;90.90;;;;;;5000935;28;20033;-73
2023/03/07 06:15:15;;;;;;;18.38;10.88;;;5.80;90.80;;;;;;4998658;28;20026;-72
2023/03/07 06:17:41;;;;;;;22.48;11.68;;;5.80;90.90;;;;;;4997068;28;20184;-73
2023/03/07 06:20:08;;;;;;;17.88;11.52;;;5.90;90.90;;;;;;4994554;28;20041;-73
2023/03/07 06:22:36;;;;;;;20.95;11.35;;;5.80;90.90;;;;;;5000381;28;20627;-72
2023/03/07 06:25:03;;;;;;;19.80;11.60;;;5.90;91.00;;;;;;4988361;28;20060;-74
2023/03/07 06:27:36;;;;;;;21.30;10.75;;;5.90;90.90;;;;;;4986012;28;20079;-74
2023/03/07 06:30:02;;;;;;;23.08;12.35;;;5.90;90.80;;;;;;4995447;28;20029;-74
2023/03/07 06:32:29;;;;;;;19.15;10.93;;;5.90;90.80;;;;;;4995485;28;20782;-73
2023/03/07 06:34:56;;;;;;;19.05;11.85;;;5.90;90.80;;;;;;4994456;28;20030;-73
2023/03/07 06:37:21;;;;;;;22.13;11.85;;;5.90;90.80;;;;;;4987135;28;20465;-73
2023/03/07 06:39:47;;;;;;;21.38;12.07;;;5.90;90.70;;;;;;4996293;28;20022;-74
2023/03/07 06:42:13;;;;;;;19.98;11.18;;;6.00;90.70;;;;;;5014962;28;20117;-74
2023/03/07 06:44:38;;;;;;;22.83;12.13;;;6.00;90.50;;;;;;5001127;28;20065;-79
2023/03/07 06:47:04;;;;;;;20.88;12.18;;;5.90;90.50;;;;;;4996746;28;20077;-81
2023/03/07 06:49:30;;;;;;;17.33;11.27;;;6.00;90.60;;;;;;4995947;28;20042;-80
2023/03/07 06:51:55;;;;;;;20.23;12.20;;;6.00;90.50;;;;;;4991994;28;20125;-77
2023/03/07 06:54:21;;;;;;;23.60;12.57;;;6.00;90.50;;;;;;5000997;28;20292;-80
2023/03/07 06:56:47;;;;;;;23.67;12.00;;;5.90;90.40;;;;;;4996753;28;20099;-79
2023/03/07 06:59:13;;;;;;;19.77;12.02;;;6.00;90.40;;;;;;4992542;28;20031;-81
2023/03/07 07:01:38;;;;;;;23.48;13.18;;;6.00;90.30;;;;;;4996985;28;20104;-80
2023/03/07 07:04:04;;;;;;;21.73;12.32;;;6.00;90.40;;;;;;4994885;28;20030;-77
2023/03/07 07:06:30;;;;;;;21.77;12.15;;;6.00;90.40;;;;;;4999905;28;20095;-80
2023/03/07 07:08:57;;;;;;;19.15;12.45;;;6.00;90.40;;;;;;5001629;28;20459;-81
2023/03/07 07:11:24;;;;;;;20.25;11.15;;;6.00;90.50;;;;;;4989995;28;20137;-80
2023/03/07 07:13:50;;;;;;;19.02;11.80;;;6.00;90.50;;;;;;4991648;28;20387;-80
2023/03/07 07:16:16;;;;;;;23.40;11.15;;;6.10;90.50;;;;;;4998564;28;20030;-82
2023/03/07 07:18:42;;;;;;;21.30;12.45;;;6.10;90.50;;;;;;4995277;28;20455;-78
2023/03/07 07:21:08;;;;;;;21.75;12.20;;;6.10;90.50;;;;;;4998529;28;20051;-79
2023/03/07 07:23:33;;;;;;;20.10;11.85;;;6.10;90.70;;;;;;4992653;28;20041;-79
2023/03/07 07:26:00;;;;;;;17.60;11.80;;;6.10;90.60;;;;;;4998481;28;20509;-79
2023/03/07 07:28:26;;;;;;;15.77;10.98;;;6.00;90.50;;;;;;4994379;28;20053;-80
2023/03/07 07:30:52;;;;;;;16.80;11.85;;;6.10;90.60;;;;;;4991231;28;20487;-79
2023/03/07 07:33:17;;;;;;;17.00;11.18;;;6.10;90.50;;;;;;4997398;28;20522;-78
2023/03/07 07:35:43;;;;;;;18.70;11.60;;;6.00;90.70;;;;;;4996185;28;20728;-80
2023/03/07 07:38:09;;;;;;;19.92;12.65;;;6.00;90.90;;;;;;4995827;28;20018;-79
2023/03/07 07:40:35;;;;;;;17.83;11.20;;;6.00;91.10;;;;;;4993503;28;20032;-77
2023/03/07 07:43:01;;;;;;;15.88;11.32;;;5.90;91.00;;;;;;4991692;28;20014;-77
2023/03/07 07:45:27;;;;;;;14.40;10.55;;;5.80;90.90;;;;;;4990474;28;20038;-76
2023/03/07 07:47:52;;;;;;;18.98;10.63;;;5.80;90.60;;;;;;4991695;28;20041;-78
2023/03/07 07:50:20;;;;;;;16.95;10.93;;;5.70;90.50;;;;;;4996670;28;20042;-77
2023/03/07 07:52:46;;;;;;;14.00;9.75;;;5.70;90.50;;;;;;4996276;28;20030;-77
2023/03/07 07:55:13;;;;;;;15.52;9.05;;;5.70;90.20;;;;;;4996029;28;20026;-77
2023/03/07 07:57:40;;;;;;;12.38;8.27;;;5.70;89.80;;;;;;5000451;28;20466;-78
2023/03/07 08:00:07;;;;;;;15.50;8.45;;;5.60;89.90;;;;;;4994635;28;20019;-76
2023/03/07 08:02:34;;;;;;;20.65;9.23;;;5.70;89.90;;;;;;5000522;28;20121;-76
2023/03/07 08:05:00;;;;;;;17.05;9.38;;;5.80;89.90;;;;;;5001812;28;20044;-80
2023/03/07 08:07:26;;;;;;;16.73;9.18;;;5.80;89.90;;;;;;4999235;28;20042;-81
2023/03/07 08:09:51;;;;;;;17.02;10.18;;;5.80;89.60;;;;;;4999437;28;20026;-79
2023/03/07 08:12:17;;;;;;;15.18;9.63;;;5.80;89.70;;;;;;4998896;28;20045;-79
2023/03/07 08:14:43;;;;;;;12.35;8.00;;;5.80;89.80;;;;;;5001596;28;20037;-80
2023/03/07 08:17:09;;;;;;;14.43;8.43;;;5.90;89.80;;;;;;5001255;28;20521;-83
2023/03/07 08:19:35;;;;;;;20.38;8.70;;;5.80;89.70;;;;;;5001979;28;20042;-75
2023/03/07 08:22:01;;;;;;;13.93;8.50;;;5.90;89.70;;;;;;5000032;28;20033;-75
2023/03/07 08:24:27;;;;;;;14.68;8.15;;;5.90;89.80;;;;;;5002060;28;20497;-78
2023/03/07 08:26:52;;;;;;;12.15;7.60;;;5.90;89.70;;;;;;4997467;28;20035;-76
2023/03/07 08:29:18;;;;;;;11.73;7.65;;;5.90;89.50;;;;;;4998690;28;20029;-83
2023/03/07 08:31:44;;;;;;;13.52;7.25;;;5.90;89.60;;;;;;4995611;28;20475;-76
2023/03/07 08:34:11;;;;;;;14.65;7.68;;;5.90;89.70;;;;;;4988859;28;20030;-77
2023/03/07 08:36:37;;;;;;;13.90;7.45;;;5.90;89.50;;;;;;4998594;28;20398;-82
2023/03/07 08:39:03;;;;;;;14.30;8.15;;;5.90;89.70;;;;;;4998119;28;20076;-82
2023/03/07 08:41:29;;;;;;;14.95;8.93;;;6.00;89.70;;;;;;5000786;28;20501;-78
2023/03/07 08:43:54;;;;;;;13.93;8.90;;;6.00;89.90;;;;;;5001763;28;20050;-81
2023/03/07 08:46:20;;;;;;;16.25;9.23;;;5.90;89.90;;;;;;4998481;28;20120;-78
2023/03/07 08:48:46;;;;;;;15.77;9.38;;;6.00;90.00;;;;;;4993591;28;20133;-83
2023/03/07 08:51:14;;;;;;;20.05;9.93;;;6.10;90.00;;;;;;5000578;28;20583;-81
2023/03/07 08:53:41;;;;;;;16.10;9.70;;;6.10;90.10;;;;;;4993801;28;20041;-81
2023/03/07 08:56:09;;;;;;;16.80;10.63;;;6.10;90.10;;;;;;4996610;28;20045;-81
2023/03/07 08:58:36;;;;;;;18.52;9.90;;;6.20;90.10;;;;;;5004246;28;20080;-80
2023/03/07 09:01:02;;;;;;;17.00;8.80;;;6.20;90.20;;;;;;5000543;28;20036;-82
2023/03/07 09:03:28;;;;;;;15.52;9.07;;;6.20;90.10;;;;;;4997276;28;20034;-80
2023/03/07 09:05:54;;;;;;;11.80;7.97;;;6.30;90.10;;;;;;4989691;28;20064;-82
2023/03/07 09:08:20;;;;;;;15.23;8.98;;;6.30;90.20;;;;;;5001984;28;20426;-84
2023/03/07 09:10:46;;;;;;;13.80;9.48;;;6.30;90.00;;;;;;5002327;28;20033;-81
2023/03/07 09:13:12;;;;;;;13.40;9.00;;;6.30;89.70;;;;;;4997807;28;20038;-80
2023/03/07 09:15:39;;;;;;;14.40;10.15;;;6.30;89.90;;;;;;5001781;28;20032;-82
2023/03/07 09:18:06;;;;;;;18.95;10.82;;;6.30;89.40;;;;;;5000561;28;20030;-83
2023/03/07 09:20:31;;;;;;;17.02;10.75;;;6.30;89.20;;;;;;4993319;28;20049;-83
2023/03/07 09:22:57;;;;;;;16.90;10.95;;;6.30;89.10;;;;;;5002816;28;20113;-80
2023/03/07 09:25:23;;;;;;;14.98;10.02;;;6.20;88.70;;;;;;5002680;28;20040;-84
2023/03/07 09:27:49;;;;;;;14.82;9.35;;;6.30;89.00;;;;;;5000202;28;20042;-83
2023/03/07 09:30:15;;;;;;;13.05;9.68;;;6.30;88.90;;;;;;4996509;28;20030;-82
2023/03/07 09:32:41;;;;;;;16.30;9.82;;;6.40;89.00;;;;;;5004564;28;20052;-79
2023/03/07 09:35:07;;;;;;;15.65;8.93;;;6.30;89.00;;;;;;5000234;28;20133;-81
2023/03/07 09:37:33;;;;;;;13.85;8.80;;;6.30;89.00;;;;;;4997870;28;20041;-80
2023/03/07 09:39:59;;;;;;;14.60;9.38;;;6.30;89.00;;;;;;5006817;28;20038;-79
2023/03/07 09:42:43;;;;;;;14.35;9.93;;;6.20;89.00;;;;;;5002183;28;20153;-81
2023/03/07 09:45:20;;;;;;;14.30;10.07;;;6.20;89.20;;;;;;4996369;28;20029;-82
2023/03/07 09:47:57;;;;;;;15.10;10.52;;;6.20;89.20;;;;;;5000874;28;20136;-80
2023/03/07 09:50:38;;;;;;;17.65;9.98;;;6.10;89.20;;;;;;5008051;28;20497;-79
2023/03/07 09:53:04;;;;;;;18.02;10.13;;;6.10;89.50;;;;;;5000784;28;20046;-80
2023/03/07 09:55:31;;;;;;;12.23;8.90;;;6.20;89.60;;;;;;4999038;28;20062;-83
2023/03/07 09:58:08;;;;;;;12.20;8.60;;;6.00;89.30;;;;;;4996892;28;20026;-82
2023/03/07 10:00:41;;;;;;;13.07;7.97;;;6.00;89.50;;;;;;5001105;28;20406;-84
2023/03/07 10:03:19;;;;;;;11.27;7.05;;;5.90;89.30;;;;;;5008306;28;20033;-81
2023/03/07 10:05:49;;;;;;;9.60;6.15;;;5.80;89.10;;;;;;5000509;28;20113;-82
2023/03/07 10:08:30;;;;;;;10.38;7.03;;;5.60;88.70;;;;;;5005452;28;20022;-80
2023/03/07 10:11:17;;;;;;;8.60;5.85;;;5.50;88.90;;;;;;5008636;28;20038;-81
2023/03/07 10:14:01;;;;;;;11.35;6.60;;;5.50;88.80;;;;;;5002923;28;20033;-84
2023/03/07 10:16:42;;;;;;;8.23;5.47;;;5.60;89.10;;;;;;4989390;28;20414;-80
2023/03/07 10:19:30;;;;;;;9.50;5.38;;;5.60;88.90;;;;;;4986865;28;20088;-83
2023/03/07 10:21:56;;;;;;;8.38;5.57;;;5.50;88.70;;;;;;4994353;28;20034;-84
2023/03/07 10:24:49;;;;;;;8.60;5.60;;;5.60;88.60;;;;;;4996634;28;20034;-84
2023/03/07 10:27:15;;;;;;;7.93;4.55;;;5.60;88.60;;;;;;4999130;28;20038;-83
2023/03/07 10:29:55;;;;;;;9.48;5.38;;;5.60;88.40;;;;;;4999775;28;20364;-76
2023/03/07 10:32:29;;;;;;;10.13;5.50;;;5.60;88.50;;;;;;4998724;28;20069;-83
2023/03/07 10:35:06;;;;;;;9.48;5.90;;;5.60;88.50;;;;;;4996988;28;20422;-80
2023/03/07 10:37:54;;;;;;;8.55;5.32;;;5.70;88.70;;;;;;5004128;28;20800;-81
2023/03/07 10:40:32;;;;;;;8.70;5.28;;;5.70;88.60;;;;;;5005355;28;20034;-81
2023/03/07 10:42:59;;;;;;;9.25;5.95;;;5.70;88.40;;;;;;4990503;28;20041;-81
2023/03/07 10:45:29;;;;;;;9.18;6.03;;;5.70;88.70;;;;;;5008309;28;20533;-83
2023/03/07 10:47:58;;;;;;;8.25;4.50;;;5.80;88.70;;;;;;4984289;28;20495;-82
2023/03/07 10:50:51;;;;;;;7.15;4.50;;;5.70;87.90;;;;;;4978086;28;20038;-81
2023/03/07 10:53:24;;;;;;;9.00;5.20;;;5.80;88.10;;;;;;5018102;28;20034;-83
2023/03/07 10:55:49;;;;;;;9.18;5.65;;;5.90;88.30;;;;;;4999328;28;20058;-79
2023/03/07 10:58:26;;;;;;;7.25;4.30;;;6.00;88.10;;;;;;5001478;28;20087;-83
2023/03/07 11:01:00;;;;;;;8.32;5.43;;;5.90;87.40;;;;;;5002373;28;20053;-79
2023/03/07 11:03:37;;;;;;;8.05;4.85;;;5.80;87.80;;;;;;4995637;28;20018;-84
2023/03/07 11:06:03;;;;;;;8.68;5.65;;;5.70;87.70;;;;;;5000101;28;20064;-84
2023/03/07 11:08:35;;;;;;;7.95;5.30;;;5.80;88.10;;;;;;5004378;28;20030;-81
2023/03/07 11:11:03;;;;;;;7.55;4.90;;;5.80;88.00;;;;;;4999961;28;20125;-83
2023/03/07 11:13:30;;;;;;;8.50;5.13;;;5.80;87.90;;;;;;5004594;28;20041;-82
2023/03/07 11:16:19;;;;;;;7.18;4.60;;;5.80;87.90;;;;;;4994920;28;20038;-81
2023/03/07 11:18:45;;;;;;;10.48;5.07;;;5.80;87.70;;;;;;4997739;28;20351;-81
2023/03/07 11:21:32;;;;;;;7.55;5.20;;;5.80;87.50;;;;;;4999989;28;20854;-78
2023/03/07 11:24:19;;;;;;;7.93;4.47;;;5.90;87.50;;;;;;4998299;28;20030;-83
2023/03/07 11:26:44;;;;;;;7.72;4.32;;;6.00;87.30;;;;;;5000621;28;20043;-82
2023/03/07 11:29:12;;;;;;;7.22;4.20;;;6.00;87.20;;;;;;4996358;28;20022;-82
2023/03/07 11:32:19;;;;;;;8.68;4.70;;;6.00;87.20;;;;;;5001617;28;20088;-83
2023/03/07 11:35:11;;;;;;;7.47;4.35;;;6.10;87.50;;;;;;5001150;28;20057;-82
2023/03/07 11:38:17;;;;;;;6.20;4.10;;;6.30;87.40;;;;;;5018481;28;20131;-82
2023/03/07 11:40:53;;;;;;;5.97;3.50;;;6.40;86.80;;;;;;5002382;28;20479;-81
2023/03/07 11:44:12;;;;;;;4.93;3.15;;;6.20;86.40;;;;;;5002721;28;20292;-81
2023/03/07 11:46:50;;;;;;;5.97;3.30;;;6.20;86.30;;;;;;4997213;28;20092;-82
2023/03/07 11:49:45;;;;;;;6.20;3.72;;;6.40;86.60;;;;;;4992001;28;20022;-85
2023/03/07 11:52:29;;;;;;;6.93;4.53;;;6.50;86.40;;;;;;4998315;28;20022;-81
2023/03/07 11:55:01;;;;;;;7.28;4.82;;;6.50;86.20;;;;;;4991171;28;20030;-81
2023/03/07 11:57:51;;;;;;;8.18;5.50;;;6.40;86.10;;;;;;4992633;28;20058;-82
2023/03/07 12:00:41;;;;;;;8.27;5.28;;;6.20;85.60;;;;;;4994712;28;20026;-81
2023/03/07 12:03:49;;;;;;;8.95;5.85;;;6.10;85.90;;;;;;4997694;28;20038;-81
2023/03/07 12:06:39;;;;;;;8.77;5.40;;;6.30;86.30;;;;;;4995712;28;20061;-84
2023/03/07 12:09:43;;;;;;;8.15;5.53;;;6.30;86.30;;;;;;4998516;28;20360;-83
2023/03/07 12:12:38;;;;;;;6.65;4.47;;;6.30;85.80;;;;;;4993735;28;20050;-81
2023/03/07 12:15:25;;;;;;;6.32;4.22;;;6.40;86.10;;;;;;4999413;28;20469;-82
2023/03/07 12:18:35;;;;;;;6.43;3.65;;;6.60;86.50;;;;;;4992103;28;20034;-84
2023/03/07 12:21:26;;;;;;;6.78;4.07;;;6.60;85.90;;;;;;4993441;28;20077;-84
2023/03/07 12:24:00;;;;;;;5.95;3.50;;;6.70;86.30;;;;;;5003065;28;20051;-83
2023/03/07 12:26:35;;;;;;;6.70;3.55;;;6.80;85.70;;;;;;4998113;28;20038;-83
2023/03/07 12:29:12;;;;;;;6.10;3.33;;;6.80;85.40;;;;;;5003001;28;20034;-82
2023/03/07 12:31:42;;;;;;;4.93;2.90;;;6.80;85.20;;;;;;5004040;28;20034;-83
2023/03/07 12:34:22;;;;;;;6.03;3.10;;;6.90;85.10;;;;;;5003770;28;20033;-76
2023/03/07 12:36:55;;;;;;;4.85;3.00;;;6.90;84.60;;;;;;5002906;28;20073;-80
2023/03/07 12:39:37;;;;;;;6.55;3.95;;;6.60;84.40;;;;;;5002589;28;20030;-82
2023/03/07 12:42:24;;;;;;;5.63;3.67;;;6.60;85.60;;;;;;4999316;28;21297;-81
2023/03/07 12:45:07;;;;;;;6.00;3.53;;;6.50;85.50;;;;;;4997766;28;20030;-80
2023/03/07 12:47:54;;;;;;;7.85;4.00;;;6.40;85.90;;;;;;4997849;28;20104;-82
2023/03/07 12:50:45;;;;;;;7.07;4.30;;;6.30;86.30;;;;;;5006321;28;20061;-81
2023/03/07 12:53:40;;;;;;;7.50;4.63;;;6.30;86.80;;;;;;5004769;28;20204;-82
2023/03/07 12:56:50;;;;;;;9.60;6.20;;;6.40;86.60;;;;;;5005611;28;20066;-82
2023/03/07 12:59:18;;;;;;;10.40;8.52;;;6.40;85.30;;;;;;5003897;28;20133;-82